sensor_id;sensor_type;location;lat;lon;timestamp;P1;durP1;ratioP1;P2;durP2;ratioP2
11522;SDS011;70090;43.208;27.904;2023-06-22T00:00:33;32.13;;;24.77;;
11522;SDS011;70090;43.208;27.904;2023-06-22T00:03:00;32.10;;;26.23;;
11522;SDS011;70090;43.208;27.904;2023-06-22T00:05:28;29.13;;;25.03;;
11522;SDS011;70090;43.208;27.904;2023-06-22T00:07:55;37.83;;;26.10;;
11522;SDS011;70090;43.208;27.904;2023-06-22T00:10:22;35.47;;;24.93;;
11522;SDS011;70090;43.208;27.904;2023-06-22T00:12:49;35.63;;;25.20;;
11522;SDS011;70090;43.208;27.904;2023-06-22T00:15:16;33.07;;;24.53;;
11522;SDS011;70090;43.208;27.904;2023-06-22T00:17:42;33.50;;;24.90;;
11522;SDS011;70090;43.208;27.904;2023-06-22T00:20:10;31.13;;;25.57;;
11522;SDS011;70090;43.208;27.904;2023-06-22T00:22:38;31.70;;;25.40;;
11522;SDS011;70090;43.208;27.904;2023-06-22T00:25:06;31.83;;;25.50;;
11522;SDS011;70090;43.208;27.904;2023-06-22T00:27:33;32.50;;;25.43;;
11522;SDS011;70090;43.208;27.904;2023-06-22T00:30:00;29.83;;;23.57;;
11522;SDS011;70090;43.208;27.904;2023-06-22T00:32:28;34.17;;;25.83;;
11522;SDS011;70090;43.208;27.904;2023-06-22T00:34:55;28.97;;;24.43;;
11522;SDS011;70090;43.208;27.904;2023-06-22T00:37:22;31.20;;;25.40;;
11522;SDS011;70090;43.208;27.904;2023-06-22T00:39:52;33.63;;;25.53;;
11522;SDS011;70090;43.208;27.904;2023-06-22T00:42:19;29.20;;;25.83;;
11522;SDS011;70090;43.208;27.904;2023-06-22T00:44:46;28.23;;;24.93;;
11522;SDS011;70090;43.208;27.904;2023-06-22T00:47:13;28.50;;;25.10;;
11522;SDS011;70090;43.208;27.904;2023-06-22T00:49:42;30.93;;;26.07;;
11522;SDS011;70090;43.208;27.904;2023-06-22T00:52:10;31.73;;;25.73;;
11522;SDS011;70090;43.208;27.904;2023-06-22T00:54:38;31.43;;;26.33;;
11522;SDS011;70090;43.208;27.904;2023-06-22T00:57:12;32.40;;;26.60;;
11522;SDS011;70090;43.208;27.904;2023-06-22T00:59:41;34.33;;;25.63;;
11522;SDS011;70090;43.208;27.904;2023-06-22T01:02:08;31.10;;;25.67;;
11522;SDS011;70090;43.208;27.904;2023-06-22T01:04:36;28.90;;;25.80;;
11522;SDS011;70090;43.208;27.904;2023-06-22T01:07:07;32.17;;;26.47;;
11522;SDS011;70090;43.208;27.904;2023-06-22T01:09:40;30.77;;;26.00;;
11522;SDS011;70090;43.208;27.904;2023-06-22T01:12:16;31.17;;;27.80;;
11522;SDS011;70090;43.208;27.904;2023-06-22T01:14:47;36.73;;;28.13;;
11522;SDS011;70090;43.208;27.904;2023-06-22T01:17:20;30.53;;;26.53;;
11522;SDS011;70090;43.208;27.904;2023-06-22T01:19:49;30.70;;;25.67;;
11522;SDS011;70090;43.208;27.904;2023-06-22T01:22:20;34.47;;;27.00;;
11522;SDS011;70090;43.208;27.904;2023-06-22T01:24:51;30.97;;;26.20;;
11522;SDS011;70090;43.208;27.904;2023-06-22T01:27:36;35.57;;;25.63;;
11522;SDS011;70090;43.208;27.904;2023-06-22T01:30:14;30.17;;;25.93;;
11522;SDS011;70090;43.208;27.904;2023-06-22T01:32:43;32.73;;;25.73;;
11522;SDS011;70090;43.208;27.904;2023-06-22T01:35:10;29.47;;;26.17;;
11522;SDS011;70090;43.208;27.904;2023-06-22T01:37:38;33.33;;;27.50;;
11522;SDS011;70090;43.208;27.904;2023-06-22T01:40:06;31.47;;;24.27;;
11522;SDS011;70090;43.208;27.904;2023-06-22T01:42:35;33.07;;;25.73;;
11522;SDS011;70090;43.208;27.904;2023-06-22T01:45:03;30.87;;;25.53;;
11522;SDS011;70090;43.208;27.904;2023-06-22T01:47:32;26.83;;;23.80;;
11522;SDS011;70090;43.208;27.904;2023-06-22T01:50:00;26.07;;;22.43;;
11522;SDS011;70090;43.208;27.904;2023-06-22T01:52:27;29.63;;;20.90;;
11522;SDS011;70090;43.208;27.904;2023-06-22T01:54:54;30.50;;;22.67;;
11522;SDS011;70090;43.208;27.904;2023-06-22T01:57:23;28.10;;;20.50;;
11522;SDS011;70090;43.208;27.904;2023-06-22T01:59:52;28.47;;;23.10;;
11522;SDS011;70090;43.208;27.904;2023-06-22T02:02:26;35.00;;;25.90;;
11522;SDS011;70090;43.208;27.904;2023-06-22T02:04:59;33.37;;;26.77;;
11522;SDS011;70090;43.208;27.904;2023-06-22T02:07:31;30.80;;;25.43;;
11522;SDS011;70090;43.208;27.904;2023-06-22T02:10:08;34.53;;;27.17;;
11522;SDS011;70090;43.208;27.904;2023-06-22T02:12:38;30.77;;;25.43;;
11522;SDS011;70090;43.208;27.904;2023-06-22T02:15:08;30.20;;;25.00;;
11522;SDS011;70090;43.208;27.904;2023-06-22T02:17:37;23.53;;;21.03;;
11522;SDS011;70090;43.208;27.904;2023-06-22T02:20:06;29.20;;;23.90;;
11522;SDS011;70090;43.208;27.904;2023-06-22T02:22:39;24.20;;;19.73;;
11522;SDS011;70090;43.208;27.904;2023-06-22T02:25:06;26.93;;;21.23;;
11522;SDS011;70090;43.208;27.904;2023-06-22T02:27:33;28.23;;;21.83;;
11522;SDS011;70090;43.208;27.904;2023-06-22T02:30:00;25.30;;;22.70;;
11522;SDS011;70090;43.208;27.904;2023-06-22T02:32:27;31.03;;;23.03;;
11522;SDS011;70090;43.208;27.904;2023-06-22T02:34:54;26.50;;;20.90;;
11522;SDS011;70090;43.208;27.904;2023-06-22T02:37:22;22.03;;;18.17;;
11522;SDS011;70090;43.208;27.904;2023-06-22T02:39:50;19.60;;;17.57;;
11522;SDS011;70090;43.208;27.904;2023-06-22T02:42:17;20.43;;;17.07;;
11522;SDS011;70090;43.208;27.904;2023-06-22T02:44:45;19.40;;;17.37;;
11522;SDS011;70090;43.208;27.904;2023-06-22T02:47:12;21.23;;;16.10;;
11522;SDS011;70090;43.208;27.904;2023-06-22T02:49:39;19.50;;;15.97;;
11522;SDS011;70090;43.208;27.904;2023-06-22T02:52:07;18.73;;;16.50;;
11522;SDS011;70090;43.208;27.904;2023-06-22T02:54:35;18.77;;;16.57;;
11522;SDS011;70090;43.208;27.904;2023-06-22T02:57:02;19.47;;;16.87;;
11522;SDS011;70090;43.208;27.904;2023-06-22T02:59:29;18.90;;;14.90;;
11522;SDS011;70090;43.208;27.904;2023-06-22T03:01:56;19.17;;;15.53;;
11522;SDS011;70090;43.208;27.904;2023-06-22T03:04:23;19.63;;;15.57;;
11522;SDS011;70090;43.208;27.904;2023-06-22T03:06:50;19.33;;;15.47;;
11522;SDS011;70090;43.208;27.904;2023-06-22T03:09:17;16.87;;;15.13;;
11522;SDS011;70090;43.208;27.904;2023-06-22T03:11:45;18.87;;;14.83;;
11522;SDS011;70090;43.208;27.904;2023-06-22T03:14:12;17.63;;;14.23;;
11522;SDS011;70090;43.208;27.904;2023-06-22T03:16:38;16.33;;;14.57;;
11522;SDS011;70090;43.208;27.904;2023-06-22T03:19:06;16.37;;;14.13;;
11522;SDS011;70090;43.208;27.904;2023-06-22T03:21:32;15.17;;;13.60;;
11522;SDS011;70090;43.208;27.904;2023-06-22T03:23:59;15.67;;;13.23;;
11522;SDS011;70090;43.208;27.904;2023-06-22T03:26:26;13.83;;;12.43;;
11522;SDS011;70090;43.208;27.904;2023-06-22T03:28:54;14.43;;;12.97;;
11522;SDS011;70090;43.208;27.904;2023-06-22T03:31:21;17.27;;;13.43;;
11522;SDS011;70090;43.208;27.904;2023-06-22T03:33:49;15.73;;;12.97;;
11522;SDS011;70090;43.208;27.904;2023-06-22T03:36:16;13.80;;;12.50;;
11522;SDS011;70090;43.208;27.904;2023-06-22T03:38:44;16.90;;;13.47;;
11522;SDS011;70090;43.208;27.904;2023-06-22T03:41:11;15.40;;;13.23;;
11522;SDS011;70090;43.208;27.904;2023-06-22T03:43:37;13.67;;;12.30;;
11522;SDS011;70090;43.208;27.904;2023-06-22T03:46:06;17.27;;;13.53;;
11522;SDS011;70090;43.208;27.904;2023-06-22T03:48:33;15.97;;;13.27;;
11522;SDS011;70090;43.208;27.904;2023-06-22T03:51:00;14.63;;;13.10;;
11522;SDS011;70090;43.208;27.904;2023-06-22T03:53:28;14.73;;;13.23;;
11522;SDS011;70090;43.208;27.904;2023-06-22T03:55:55;16.87;;;12.90;;
11522;SDS011;70090;43.208;27.904;2023-06-22T03:58:22;14.77;;;13.17;;
11522;SDS011;70090;43.208;27.904;2023-06-22T04:00:49;16.87;;;12.27;;
11522;SDS011;70090;43.208;27.904;2023-06-22T04:03:18;13.70;;;11.63;;
11522;SDS011;70090;43.208;27.904;2023-06-22T04:05:45;16.13;;;12.07;;
11522;SDS011;70090;43.208;27.904;2023-06-22T04:08:12;15.17;;;12.37;;
11522;SDS011;70090;43.208;27.904;2023-06-22T04:10:39;17.40;;;12.60;;
11522;SDS011;70090;43.208;27.904;2023-06-22T04:13:07;15.47;;;12.20;;
11522;SDS011;70090;43.208;27.904;2023-06-22T04:15:34;15.40;;;13.47;;
11522;SDS011;70090;43.208;27.904;2023-06-22T04:18:00;20.20;;;12.83;;
11522;SDS011;70090;43.208;27.904;2023-06-22T04:20:29;14.53;;;13.03;;
11522;SDS011;70090;43.208;27.904;2023-06-22T04:22:56;13.13;;;11.67;;
11522;SDS011;70090;43.208;27.904;2023-06-22T04:25:23;16.47;;;11.77;;
11522;SDS011;70090;43.208;27.904;2023-06-22T04:27:50;16.30;;;13.07;;
11522;SDS011;70090;43.208;27.904;2023-06-22T04:30:17;15.23;;;13.00;;
11522;SDS011;70090;43.208;27.904;2023-06-22T04:32:44;20.47;;;13.00;;
11522;SDS011;70090;43.208;27.904;2023-06-22T04:35:22;23.00;;;19.70;;
11522;SDS011;70090;43.208;27.904;2023-06-22T04:37:52;21.03;;;14.70;;
11522;SDS011;70090;43.208;27.904;2023-06-22T04:40:20;23.90;;;19.00;;
11522;SDS011;70090;43.208;27.904;2023-06-22T04:42:47;21.80;;;15.70;;
11522;SDS011;70090;43.208;27.904;2023-06-22T04:45:18;16.03;;;13.07;;
11522;SDS011;70090;43.208;27.904;2023-06-22T04:47:45;19.23;;;13.00;;
11522;SDS011;70090;43.208;27.904;2023-06-22T04:50:12;17.47;;;13.73;;
11522;SDS011;70090;43.208;27.904;2023-06-22T04:52:39;16.67;;;12.53;;
11522;SDS011;70090;43.208;27.904;2023-06-22T04:55:08;13.60;;;11.23;;
11522;SDS011;70090;43.208;27.904;2023-06-22T04:57:35;14.73;;;11.67;;
11522;SDS011;70090;43.208;27.904;2023-06-22T05:00:05;15.17;;;12.67;;
11522;SDS011;70090;43.208;27.904;2023-06-22T05:02:42;15.53;;;11.43;;
11522;SDS011;70090;43.208;27.904;2023-06-22T05:05:09;14.63;;;11.93;;
11522;SDS011;70090;43.208;27.904;2023-06-22T05:07:39;16.23;;;13.23;;
11522;SDS011;70090;43.208;27.904;2023-06-22T05:10:09;14.40;;;12.77;;
11522;SDS011;70090;43.208;27.904;2023-06-22T05:12:37;16.60;;;12.87;;
11522;SDS011;70090;43.208;27.904;2023-06-22T05:15:05;14.03;;;12.57;;
11522;SDS011;70090;43.208;27.904;2023-06-22T05:17:32;19.27;;;13.30;;
11522;SDS011;70090;43.208;27.904;2023-06-22T05:20:00;15.30;;;12.60;;
11522;SDS011;70090;43.208;27.904;2023-06-22T05:22:27;15.07;;;12.23;;
11522;SDS011;70090;43.208;27.904;2023-06-22T05:24:54;15.23;;;12.90;;
11522;SDS011;70090;43.208;27.904;2023-06-22T05:27:22;14.57;;;13.03;;
11522;SDS011;70090;43.208;27.904;2023-06-22T05:29:49;15.10;;;12.30;;
11522;SDS011;70090;43.208;27.904;2023-06-22T05:32:15;15.67;;;12.10;;
11522;SDS011;70090;43.208;27.904;2023-06-22T05:34:43;12.80;;;11.60;;
11522;SDS011;70090;43.208;27.904;2023-06-22T05:37:10;16.83;;;12.40;;
11522;SDS011;70090;43.208;27.904;2023-06-22T05:39:38;13.33;;;11.63;;
11522;SDS011;70090;43.208;27.904;2023-06-22T05:42:05;14.27;;;9.93;;
11522;SDS011;70090;43.208;27.904;2023-06-22T05:44:33;19.33;;;17.00;;
11522;SDS011;70090;43.208;27.904;2023-06-22T05:47:00;17.53;;;15.40;;
11522;SDS011;70090;43.208;27.904;2023-06-22T05:49:28;17.90;;;13.30;;
11522;SDS011;70090;43.208;27.904;2023-06-22T05:51:57;13.83;;;11.83;;
11522;SDS011;70090;43.208;27.904;2023-06-22T05:54:24;13.57;;;12.00;;
11522;SDS011;70090;43.208;27.904;2023-06-22T05:56:51;13.47;;;12.00;;
11522;SDS011;70090;43.208;27.904;2023-06-22T05:59:18;12.27;;;10.77;;
11522;SDS011;70090;43.208;27.904;2023-06-22T06:01:46;14.63;;;11.23;;
11522;SDS011;70090;43.208;27.904;2023-06-22T06:04:15;14.57;;;12.03;;
11522;SDS011;70090;43.208;27.904;2023-06-22T06:06:43;14.47;;;12.20;;
11522;SDS011;70090;43.208;27.904;2023-06-22T06:09:10;15.93;;;12.00;;
11522;SDS011;70090;43.208;27.904;2023-06-22T06:11:37;18.20;;;12.40;;
11522;SDS011;70090;43.208;27.904;2023-06-22T06:14:04;14.93;;;12.43;;
11522;SDS011;70090;43.208;27.904;2023-06-22T06:16:31;15.83;;;12.57;;
11522;SDS011;70090;43.208;27.904;2023-06-22T06:19:00;14.13;;;12.63;;
11522;SDS011;70090;43.208;27.904;2023-06-22T06:21:26;15.10;;;13.50;;
11522;SDS011;70090;43.208;27.904;2023-06-22T06:23:53;17.40;;;13.80;;
11522;SDS011;70090;43.208;27.904;2023-06-22T06:26:20;17.20;;;13.50;;
11522;SDS011;70090;43.208;27.904;2023-06-22T06:28:55;16.87;;;13.57;;
11522;SDS011;70090;43.208;27.904;2023-06-22T06:31:22;16.17;;;13.80;;
11522;SDS011;70090;43.208;27.904;2023-06-22T06:33:49;13.53;;;12.27;;
11522;SDS011;70090;43.208;27.904;2023-06-22T06:36:17;16.63;;;12.73;;
11522;SDS011;70090;43.208;27.904;2023-06-22T06:38:44;15.43;;;12.07;;
11522;SDS011;70090;43.208;27.904;2023-06-22T06:41:12;12.70;;;11.37;;
11522;SDS011;70090;43.208;27.904;2023-06-22T06:43:39;17.00;;;11.30;;
11522;SDS011;70090;43.208;27.904;2023-06-22T06:46:07;14.07;;;10.83;;
11522;SDS011;70090;43.208;27.904;2023-06-22T06:48:34;11.50;;;10.30;;
11522;SDS011;70090;43.208;27.904;2023-06-22T06:51:01;14.73;;;10.97;;
11522;SDS011;70090;43.208;27.904;2023-06-22T06:53:29;12.20;;;10.90;;
11522;SDS011;70090;43.208;27.904;2023-06-22T06:55:56;12.90;;;9.77;;
11522;SDS011;70090;43.208;27.904;2023-06-22T06:58:23;13.63;;;10.57;;
11522;SDS011;70090;43.208;27.904;2023-06-22T07:00:50;13.07;;;11.30;;
11522;SDS011;70090;43.208;27.904;2023-06-22T07:03:17;14.63;;;11.50;;
11522;SDS011;70090;43.208;27.904;2023-06-22T07:05:43;15.40;;;11.17;;
11522;SDS011;70090;43.208;27.904;2023-06-22T07:08:11;11.57;;;10.33;;
11522;SDS011;70090;43.208;27.904;2023-06-22T07:10:39;11.70;;;10.10;;
11522;SDS011;70090;43.208;27.904;2023-06-22T07:13:06;10.37;;;9.30;;
11522;SDS011;70090;43.208;27.904;2023-06-22T07:15:32;10.77;;;9.43;;
11522;SDS011;70090;43.208;27.904;2023-06-22T07:17:59;10.93;;;9.40;;
11522;SDS011;70090;43.208;27.904;2023-06-22T07:20:26;15.50;;;9.43;;
11522;SDS011;70090;43.208;27.904;2023-06-22T07:22:53;14.50;;;10.17;;
11522;SDS011;70090;43.208;27.904;2023-06-22T07:25:20;12.47;;;9.53;;
11522;SDS011;70090;43.208;27.904;2023-06-22T07:27:59;12.17;;;8.73;;
11522;SDS011;70090;43.208;27.904;2023-06-22T07:30:27;11.97;;;7.97;;
11522;SDS011;70090;43.208;27.904;2023-06-22T07:32:54;10.07;;;8.83;;
11522;SDS011;70090;43.208;27.904;2023-06-22T07:35:21;10.77;;;9.57;;
11522;SDS011;70090;43.208;27.904;2023-06-22T07:37:48;10.20;;;8.73;;
11522;SDS011;70090;43.208;27.904;2023-06-22T07:40:15;8.90;;;8.10;;
11522;SDS011;70090;43.208;27.904;2023-06-22T07:42:41;10.67;;;8.63;;
11522;SDS011;70090;43.208;27.904;2023-06-22T07:45:10;11.73;;;8.77;;
11522;SDS011;70090;43.208;27.904;2023-06-22T07:47:37;11.33;;;8.60;;
11522;SDS011;70090;43.208;27.904;2023-06-22T07:50:04;10.13;;;9.03;;
11522;SDS011;70090;43.208;27.904;2023-06-22T07:52:31;10.63;;;7.73;;
11522;SDS011;70090;43.208;27.904;2023-06-22T07:54:59;10.73;;;8.57;;
11522;SDS011;70090;43.208;27.904;2023-06-22T07:57:25;8.80;;;7.90;;
11522;SDS011;70090;43.208;27.904;2023-06-22T07:59:58;8.93;;;8.00;;
11522;SDS011;70090;43.208;27.904;2023-06-22T08:02:26;8.70;;;7.90;;
11522;SDS011;70090;43.208;27.904;2023-06-22T08:04:53;9.83;;;8.07;;
11522;SDS011;70090;43.208;27.904;2023-06-22T08:07:20;10.73;;;8.00;;
11522;SDS011;70090;43.208;27.904;2023-06-22T08:09:47;9.47;;;8.57;;
11522;SDS011;70090;43.208;27.904;2023-06-22T08:12:15;9.20;;;8.30;;
11522;SDS011;70090;43.208;27.904;2023-06-22T08:14:42;10.53;;;8.30;;
11522;SDS011;70090;43.208;27.904;2023-06-22T08:17:10;9.97;;;9.07;;
11522;SDS011;70090;43.208;27.904;2023-06-22T08:19:38;10.53;;;8.60;;
11522;SDS011;70090;43.208;27.904;2023-06-22T08:22:06;10.10;;;9.10;;
11522;SDS011;70090;43.208;27.904;2023-06-22T08:24:33;9.47;;;8.57;;
11522;SDS011;70090;43.208;27.904;2023-06-22T08:26:59;9.90;;;8.97;;
11522;SDS011;70090;43.208;27.904;2023-06-22T08:29:26;9.53;;;8.17;;
11522;SDS011;70090;43.208;27.904;2023-06-22T08:31:53;9.13;;;8.20;;
11522;SDS011;70090;43.208;27.904;2023-06-22T08:34:20;9.30;;;8.30;;
11522;SDS011;70090;43.208;27.904;2023-06-22T08:36:51;9.60;;;8.70;;
11522;SDS011;70090;43.208;27.904;2023-06-22T08:39:18;9.27;;;8.23;;
11522;SDS011;70090;43.208;27.904;2023-06-22T08:41:45;9.03;;;8.20;;
11522;SDS011;70090;43.208;27.904;2023-06-22T08:44:12;9.20;;;8.30;;
11522;SDS011;70090;43.208;27.904;2023-06-22T08:46:39;8.93;;;8.10;;
11522;SDS011;70090;43.208;27.904;2023-06-22T08:49:07;9.43;;;8.53;;
11522;SDS011;70090;43.208;27.904;2023-06-22T08:51:35;9.40;;;8.43;;
11522;SDS011;70090;43.208;27.904;2023-06-22T08:54:03;10.33;;;8.70;;
11522;SDS011;70090;43.208;27.904;2023-06-22T08:56:31;10.20;;;9.07;;
11522;SDS011;70090;43.208;27.904;2023-06-22T08:58:58;9.57;;;8.63;;
11522;SDS011;70090;43.208;27.904;2023-06-22T09:01:25;9.17;;;8.27;;
11522;SDS011;70090;43.208;27.904;2023-06-22T09:03:54;9.73;;;8.73;;
11522;SDS011;70090;43.208;27.904;2023-06-22T09:06:22;9.80;;;8.80;;
11522;SDS011;70090;43.208;27.904;2023-06-22T09:08:50;12.00;;;8.97;;
11522;SDS011;70090;43.208;27.904;2023-06-22T09:11:18;9.83;;;8.43;;
11522;SDS011;70090;43.208;27.904;2023-06-22T09:13:45;11.57;;;9.40;;
11522;SDS011;70090;43.208;27.904;2023-06-22T09:16:12;9.33;;;8.43;;
11522;SDS011;70090;43.208;27.904;2023-06-22T09:18:39;10.03;;;9.10;;
11522;SDS011;70090;43.208;27.904;2023-06-22T09:21:07;9.87;;;8.80;;
11522;SDS011;70090;43.208;27.904;2023-06-22T09:23:33;10.17;;;8.87;;
11522;SDS011;70090;43.208;27.904;2023-06-22T09:26:00;11.47;;;9.27;;
11522;SDS011;70090;43.208;27.904;2023-06-22T09:28:30;10.60;;;9.30;;
11522;SDS011;70090;43.208;27.904;2023-06-22T09:30:58;9.97;;;8.97;;
11522;SDS011;70090;43.208;27.904;2023-06-22T09:33:25;11.17;;;9.30;;
11522;SDS011;70090;43.208;27.904;2023-06-22T09:35:52;11.33;;;10.33;;
11522;SDS011;70090;43.208;27.904;2023-06-22T09:38:19;13.07;;;9.60;;
11522;SDS011;70090;43.208;27.904;2023-06-22T09:40:46;11.10;;;9.57;;
11522;SDS011;70090;43.208;27.904;2023-06-22T09:43:13;11.23;;;10.23;;
11522;SDS011;70090;43.208;27.904;2023-06-22T09:45:41;13.07;;;10.70;;
11522;SDS011;70090;43.208;27.904;2023-06-22T09:48:08;14.40;;;10.73;;
11522;SDS011;70090;43.208;27.904;2023-06-22T09:50:36;11.23;;;9.97;;
11522;SDS011;70090;43.208;27.904;2023-06-22T09:53:02;11.53;;;10.47;;
11522;SDS011;70090;43.208;27.904;2023-06-22T09:55:29;11.77;;;10.67;;
11522;SDS011;70090;43.208;27.904;2023-06-22T09:57:56;12.17;;;11.07;;
11522;SDS011;70090;43.208;27.904;2023-06-22T10:00:23;11.50;;;10.40;;
11522;SDS011;70090;43.208;27.904;2023-06-22T10:02:53;11.87;;;10.77;;
11522;SDS011;70090;43.208;27.904;2023-06-22T10:05:21;15.83;;;11.70;;
11522;SDS011;70090;43.208;27.904;2023-06-22T10:07:48;13.23;;;10.73;;
11522;SDS011;70090;43.208;27.904;2023-06-22T10:10:14;12.27;;;11.10;;
11522;SDS011;70090;43.208;27.904;2023-06-22T10:12:42;12.03;;;10.83;;
11522;SDS011;70090;43.208;27.904;2023-06-22T10:15:10;12.63;;;11.43;;
11522;SDS011;70090;43.208;27.904;2023-06-22T10:17:37;12.60;;;11.30;;
11522;SDS011;70090;43.208;27.904;2023-06-22T10:20:07;10.97;;;10.07;;
11522;SDS011;70090;43.208;27.904;2023-06-22T10:22:37;12.17;;;11.00;;
11522;SDS011;70090;43.208;27.904;2023-06-22T10:25:05;11.60;;;10.53;;
11522;SDS011;70090;43.208;27.904;2023-06-22T10:27:33;11.60;;;10.50;;
11522;SDS011;70090;43.208;27.904;2023-06-22T10:30:00;11.13;;;10.03;;
11522;SDS011;70090;43.208;27.904;2023-06-22T10:32:27;11.17;;;10.17;;
11522;SDS011;70090;43.208;27.904;2023-06-22T10:34:55;11.20;;;10.20;;
11522;SDS011;70090;43.208;27.904;2023-06-22T10:37:23;12.17;;;10.87;;
11522;SDS011;70090;43.208;27.904;2023-06-22T10:39:50;12.00;;;10.90;;
11522;SDS011;70090;43.208;27.904;2023-06-22T10:42:17;12.03;;;11.00;;
11522;SDS011;70090;43.208;27.904;2023-06-22T10:44:44;12.43;;;11.43;;
11522;SDS011;70090;43.208;27.904;2023-06-22T10:47:11;12.90;;;11.30;;
11522;SDS011;70090;43.208;27.904;2023-06-22T10:49:38;12.63;;;11.43;;
11522;SDS011;70090;43.208;27.904;2023-06-22T10:52:06;12.70;;;11.40;;
11522;SDS011;70090;43.208;27.904;2023-06-22T10:54:35;11.87;;;10.67;;
11522;SDS011;70090;43.208;27.904;2023-06-22T10:57:03;12.13;;;10.87;;
11522;SDS011;70090;43.208;27.904;2023-06-22T10:59:30;12.43;;;11.17;;
11522;SDS011;70090;43.208;27.904;2023-06-22T11:01:57;12.93;;;11.53;;
11522;SDS011;70090;43.208;27.904;2023-06-22T11:04:24;12.70;;;11.50;;
11522;SDS011;70090;43.208;27.904;2023-06-22T11:06:51;11.73;;;10.67;;
11522;SDS011;70090;43.208;27.904;2023-06-22T11:09:18;11.93;;;10.83;;
11522;SDS011;70090;43.208;27.904;2023-06-22T11:11:49;12.93;;;11.53;;
11522;SDS011;70090;43.208;27.904;2023-06-22T11:14:18;12.47;;;11.27;;
11522;SDS011;70090;43.208;27.904;2023-06-22T11:16:45;12.57;;;11.33;;
11522;SDS011;70090;43.208;27.904;2023-06-22T11:19:12;12.97;;;11.67;;
11522;SDS011;70090;43.208;27.904;2023-06-22T11:21:39;12.80;;;11.60;;
11522;SDS011;70090;43.208;27.904;2023-06-22T11:24:06;12.83;;;11.43;;
11522;SDS011;70090;43.208;27.904;2023-06-22T11:26:33;13.03;;;11.73;;
11522;SDS011;70090;43.208;27.904;2023-06-22T11:29:01;13.20;;;11.90;;
11522;SDS011;70090;43.208;27.904;2023-06-22T11:31:30;12.83;;;11.63;;
11522;SDS011;70090;43.208;27.904;2023-06-22T11:33:57;13.70;;;12.33;;
11522;SDS011;70090;43.208;27.904;2023-06-22T11:36:24;13.23;;;11.93;;
11522;SDS011;70090;43.208;27.904;2023-06-22T11:38:52;12.53;;;11.07;;
11522;SDS011;70090;43.208;27.904;2023-06-22T11:41:19;12.80;;;11.70;;
11522;SDS011;70090;43.208;27.904;2023-06-22T11:43:46;13.80;;;12.33;;
11522;SDS011;70090;43.208;27.904;2023-06-22T11:46:14;13.77;;;12.33;;
11522;SDS011;70090;43.208;27.904;2023-06-22T11:48:41;12.57;;;11.27;;
11522;SDS011;70090;43.208;27.904;2023-06-22T11:51:08;12.50;;;11.40;;
11522;SDS011;70090;43.208;27.904;2023-06-22T11:53:35;13.03;;;11.70;;
11522;SDS011;70090;43.208;27.904;2023-06-22T11:56:02;13.13;;;11.80;;
11522;SDS011;70090;43.208;27.904;2023-06-22T11:58:30;12.47;;;11.20;;
11522;SDS011;70090;43.208;27.904;2023-06-22T12:00:57;12.73;;;11.53;;
11522;SDS011;70090;43.208;27.904;2023-06-22T12:03:26;12.17;;;10.97;;
11522;SDS011;70090;43.208;27.904;2023-06-22T12:05:52;13.30;;;11.90;;
11522;SDS011;70090;43.208;27.904;2023-06-22T12:08:19;13.50;;;11.70;;
11522;SDS011;70090;43.208;27.904;2023-06-22T12:10:48;13.67;;;11.60;;
11522;SDS011;70090;43.208;27.904;2023-06-22T12:13:16;13.97;;;11.37;;
11522;SDS011;70090;43.208;27.904;2023-06-22T12:15:43;12.40;;;11.33;;
11522;SDS011;70090;43.208;27.904;2023-06-22T12:18:10;12.47;;;11.37;;
11522;SDS011;70090;43.208;27.904;2023-06-22T12:20:40;13.20;;;12.00;;
11522;SDS011;70090;43.208;27.904;2023-06-22T12:23:07;13.47;;;12.37;;
11522;SDS011;70090;43.208;27.904;2023-06-22T12:25:34;13.50;;;12.37;;
11522;SDS011;70090;43.208;27.904;2023-06-22T12:28:01;12.83;;;11.50;;
11522;SDS011;70090;43.208;27.904;2023-06-22T12:30:29;13.50;;;12.20;;
11522;SDS011;70090;43.208;27.904;2023-06-22T12:32:56;13.10;;;11.67;;
11522;SDS011;70090;43.208;27.904;2023-06-22T12:35:23;13.00;;;11.80;;
11522;SDS011;70090;43.208;27.904;2023-06-22T12:37:52;12.70;;;11.50;;
11522;SDS011;70090;43.208;27.904;2023-06-22T12:40:19;13.27;;;12.10;;
11522;SDS011;70090;43.208;27.904;2023-06-22T12:42:46;12.60;;;11.33;;
11522;SDS011;70090;43.208;27.904;2023-06-22T12:45:12;11.33;;;10.23;;
11522;SDS011;70090;43.208;27.904;2023-06-22T12:47:39;11.93;;;10.80;;
11522;SDS011;70090;43.208;27.904;2023-06-22T12:50:07;11.20;;;10.07;;
11522;SDS011;70090;43.208;27.904;2023-06-22T12:52:36;10.97;;;9.97;;
11522;SDS011;70090;43.208;27.904;2023-06-22T12:55:06;10.97;;;9.33;;
11522;SDS011;70090;43.208;27.904;2023-06-22T12:57:34;11.40;;;10.00;;
11522;SDS011;70090;43.208;27.904;2023-06-22T13:00:01;10.87;;;9.73;;
11522;SDS011;70090;43.208;27.904;2023-06-22T13:02:29;10.93;;;9.93;;
11522;SDS011;70090;43.208;27.904;2023-06-22T13:04:56;11.50;;;10.43;;
11522;SDS011;70090;43.208;27.904;2023-06-22T13:07:23;11.60;;;10.57;;
11522;SDS011;70090;43.208;27.904;2023-06-22T13:09:50;10.73;;;9.70;;
11522;SDS011;70090;43.208;27.904;2023-06-22T13:12:19;11.60;;;10.50;;
11522;SDS011;70090;43.208;27.904;2023-06-22T13:14:46;13.07;;;11.73;;
11522;SDS011;70090;43.208;27.904;2023-06-22T13:17:13;12.37;;;9.70;;
11522;SDS011;70090;43.208;27.904;2023-06-22T13:19:40;11.07;;;9.97;;
11522;SDS011;70090;43.208;27.904;2023-06-22T13:22:24;10.57;;;9.17;;
11522;SDS011;70090;43.208;27.904;2023-06-22T13:24:54;10.13;;;9.23;;
11522;SDS011;70090;43.208;27.904;2023-06-22T13:27:22;10.70;;;9.70;;
11522;SDS011;70090;43.208;27.904;2023-06-22T13:29:49;10.60;;;8.80;;
11522;SDS011;70090;43.208;27.904;2023-06-22T13:32:16;9.50;;;8.70;;
11522;SDS011;70090;43.208;27.904;2023-06-22T13:34:43;9.80;;;8.90;;
11522;SDS011;70090;43.208;27.904;2023-06-22T13:37:10;10.50;;;8.67;;
11522;SDS011;70090;43.208;27.904;2023-06-22T13:39:37;9.80;;;8.80;;
11522;SDS011;70090;43.208;27.904;2023-06-22T13:42:04;10.27;;;9.33;;
11522;SDS011;70090;43.208;27.904;2023-06-22T13:44:33;9.80;;;8.80;;
11522;SDS011;70090;43.208;27.904;2023-06-22T13:46:59;11.70;;;9.53;;
11522;SDS011;70090;43.208;27.904;2023-06-22T13:49:26;10.03;;;9.13;;
11522;SDS011;70090;43.208;27.904;2023-06-22T13:51:53;9.63;;;8.63;;
11522;SDS011;70090;43.208;27.904;2023-06-22T13:54:21;10.27;;;9.30;;
11522;SDS011;70090;43.208;27.904;2023-06-22T13:56:48;9.47;;;8.60;;
11522;SDS011;70090;43.208;27.904;2023-06-22T13:59:15;9.83;;;8.93;;
11522;SDS011;70090;43.208;27.904;2023-06-22T14:01:43;9.70;;;8.80;;
11522;SDS011;70090;43.208;27.904;2023-06-22T14:04:10;9.80;;;8.80;;
11522;SDS011;70090;43.208;27.904;2023-06-22T14:06:37;9.67;;;8.40;;
11522;SDS011;70090;43.208;27.904;2023-06-22T14:09:04;10.07;;;9.17;;
11522;SDS011;70090;43.208;27.904;2023-06-22T14:11:32;11.27;;;10.20;;
11522;SDS011;70090;43.208;27.904;2023-06-22T14:13:59;10.20;;;9.20;;
11522;SDS011;70090;43.208;27.904;2023-06-22T14:16:25;11.47;;;9.03;;